createdAt,value
2019-03-23T09:44:56.817Z,17.00
2019-03-23T09:48:20.286Z,17.10
2019-03-23T09:51:43.800Z,17.10
2019-03-23T09:55:08.684Z,16.80
2019-03-23T09:58:32.145Z,17.00
2019-03-23T10:01:56.130Z,16.80
2019-03-23T10:05:19.641Z,16.80
2019-03-23T10:08:43.371Z,16.90
2019-03-23T10:12:07.381Z,16.90
2019-03-23T10:15:30.533Z,17.10
2019-03-23T10:18:54.991Z,16.90
2019-03-23T10:22:18.846Z,16.90
2019-03-23T10:25:45.451Z,17.00
2019-03-23T10:29:09.279Z,17.20
2019-03-23T10:32:34.346Z,17.20
2019-03-23T10:35:58.023Z,17.20
2019-03-23T10:39:21.305Z,17.40
2019-03-23T10:42:45.179Z,17.40
2019-03-23T10:46:10.282Z,17.50
2019-03-23T10:49:34.101Z,17.60
2019-03-23T10:52:56.871Z,17.80
2019-03-23T10:56:20.562Z,17.70
2019-03-23T10:59:45.568Z,17.70
2019-03-23T11:03:09.045Z,17.70
2019-03-23T11:06:33.105Z,17.60
2019-03-23T11:09:57.291Z,17.70
2019-03-23T11:13:20.969Z,17.70
2019-03-23T11:16:45.276Z,17.50
2019-03-23T11:20:09.043Z,17.40
2019-03-23T11:23:31.923Z,17.30
2019-03-23T11:26:54.543Z,17.30
2019-03-23T11:30:17.267Z,17.30
2019-03-23T11:33:40.063Z,17.40
2019-03-23T11:37:03.337Z,17.40
2019-03-23T11:40:26.410Z,17.50
2019-03-23T11:43:49.859Z,17.50
2019-03-23T11:47:12.602Z,17.40
2019-03-23T11:50:35.998Z,17.40
2019-03-23T11:53:58.674Z,17.40
2019-03-23T11:57:21.624Z,17.20
2019-03-23T12:00:44.970Z,16.70
2019-03-23T12:04:08.047Z,16.40
2019-03-23T12:07:31.192Z,16.40
2019-03-23T12:11:02.567Z,16.60
2019-03-23T12:14:21.058Z,16.00
2019-03-23T12:17:45.529Z,15.80
2019-03-23T12:21:08.617Z,15.80
2019-03-23T12:24:31.240Z,15.50
2019-03-23T12:27:54.239Z,14.80
2019-03-23T12:31:17.554Z,14.40
2019-03-23T12:34:40.795Z,14.30
2019-03-23T12:38:03.988Z,14.10
2019-03-23T12:41:27.075Z,14.00
2019-03-23T12:44:50.035Z,13.60
2019-03-23T12:48:12.825Z,13.20
2019-03-23T12:51:35.734Z,13.20
2019-03-23T12:54:58.686Z,13.20
2019-03-23T12:58:22.886Z,13.40
2019-03-23T13:01:45.910Z,13.40
2019-03-23T13:05:08.890Z,13.30
2019-03-23T13:08:31.996Z,13.10
2019-03-23T13:11:55.010Z,12.80
2019-03-23T13:15:17.726Z,12.50
2019-03-23T13:18:40.791Z,12.60
2019-03-23T13:22:03.465Z,12.50
2019-03-23T13:25:26.578Z,12.30
2019-03-23T13:28:49.783Z,12.30
2019-03-23T13:32:12.868Z,12.50
2019-03-23T13:35:36.114Z,12.70
2019-03-23T13:38:59.095Z,12.60
2019-03-23T13:42:22.352Z,12.60
2019-03-23T13:45:45.332Z,12.70
2019-03-23T13:49:08.369Z,12.50
2019-03-23T13:52:31.657Z,12.60
2019-03-23T13:55:54.658Z,12.70
2019-03-23T13:59:17.830Z,12.80
2019-03-23T14:02:40.686Z,12.60
2019-03-23T14:06:03.999Z,12.30
2019-03-23T14:09:27.580Z,12.30
2019-03-23T14:12:50.544Z,12.50
2019-03-23T14:16:13.483Z,12.60
2019-03-23T14:19:36.492Z,12.60
2019-03-23T14:23:02.873Z,12.60
2019-03-23T14:26:24.055Z,12.60
2019-03-23T14:29:47.212Z,12.60
2019-03-23T14:33:09.826Z,12.60
2019-03-23T14:36:41.814Z,12.60
2019-03-23T14:40:27.739Z,12.50
2019-03-23T14:43:57.594Z,12.40
2019-03-23T14:47:24.209Z,12.20
2019-03-23T14:50:51.987Z,12.30
2019-03-23T14:54:20.361Z,12.50
2019-03-23T14:57:42.924Z,12.60
2019-03-23T15:01:05.871Z,12.60
2019-03-23T15:04:28.746Z,12.50
2019-03-23T15:07:51.695Z,12.60
2019-03-23T15:11:14.628Z,12.60
2019-03-23T15:14:37.675Z,12.60
2019-03-23T15:18:00.849Z,12.70
2019-03-23T15:21:23.769Z,12.70
2019-03-23T15:24:46.693Z,12.60
2019-03-23T15:28:09.576Z,12.70
2019-03-23T15:31:32.503Z,12.60
2019-03-23T15:34:55.330Z,12.70
2019-03-23T15:38:18.025Z,12.80
2019-03-23T15:41:40.978Z,12.80
2019-03-23T15:45:03.972Z,12.90
2019-03-23T15:48:28.729Z,12.90
2019-03-23T15:51:51.986Z,12.90
2019-03-23T15:55:15.000Z,12.90
2019-03-23T15:58:38.292Z,12.90
2019-03-23T16:02:01.343Z,13.00
2019-03-23T16:05:24.322Z,12.90
2019-03-23T16:08:47.255Z,12.90
2019-03-23T16:12:10.214Z,12.90
2019-03-23T16:15:33.194Z,12.90
2019-03-23T16:18:55.823Z,12.80
2019-03-23T16:22:18.834Z,12.80
2019-03-23T16:25:41.784Z,12.70
2019-03-23T16:29:04.887Z,12.70
2019-03-23T16:32:27.869Z,12.60
2019-03-23T16:35:50.921Z,12.60
2019-03-23T16:39:13.894Z,12.50
2019-03-23T16:42:44.613Z,12.50
2019-03-23T16:46:01.646Z,12.50
2019-03-23T16:49:24.795Z,12.50
2019-03-23T16:52:47.769Z,12.50
2019-03-23T16:56:10.737Z,12.50
2019-03-23T16:59:33.719Z,12.40
2019-03-23T17:02:57.001Z,12.40
2019-03-23T17:06:19.982Z,12.40
2019-03-23T17:09:43.035Z,12.50
2019-03-23T17:13:06.187Z,12.40
2019-03-23T17:16:29.479Z,12.50
2019-03-23T17:19:52.196Z,12.50
2019-03-23T17:23:15.205Z,12.50
2019-03-23T17:26:38.365Z,12.50
2019-03-23T17:30:01.242Z,12.50
2019-03-23T17:33:24.134Z,12.50
2019-03-23T17:36:47.278Z,12.40
2019-03-23T17:40:10.297Z,12.40
2019-03-23T17:43:33.302Z,12.30
2019-03-23T17:46:56.453Z,12.40
2019-03-23T17:50:19.465Z,12.40
2019-03-23T17:53:42.314Z,12.30
2019-03-23T17:57:05.511Z,12.30
2019-03-23T18:00:29.419Z,12.20
2019-03-23T18:03:52.594Z,12.20
2019-03-23T18:07:15.602Z,12.20
2019-03-23T18:10:38.195Z,12.10
2019-03-23T18:14:00.970Z,12.10
2019-03-23T18:17:24.112Z,12.10
2019-03-23T18:20:47.042Z,12.10
2019-03-23T18:24:09.844Z,12.10
2019-03-23T18:27:33.182Z,12.10
2019-03-23T18:30:56.391Z,12.10
2019-03-23T18:34:19.676Z,12.00
2019-03-23T18:37:42.682Z,12.00
2019-03-23T18:41:05.435Z,12.00
2019-03-23T18:44:28.451Z,12.00
2019-03-23T18:47:51.554Z,12.00
2019-03-23T18:51:14.890Z,11.90
2019-03-23T18:54:37.688Z,11.90
2019-03-23T18:58:00.846Z,11.90
2019-03-23T19:01:24.111Z,11.90
2019-03-23T19:04:47.009Z,11.80
2019-03-23T19:08:11.780Z,11.80
2019-03-23T19:11:34.671Z,11.70
2019-03-23T19:14:57.846Z,11.60
2019-03-23T19:18:20.909Z,11.60
2019-03-23T19:21:43.550Z,11.60
2019-03-23T19:25:15.178Z,11.50
2019-03-23T19:28:34.627Z,11.50
2019-03-23T19:31:57.823Z,11.50
2019-03-23T19:35:21.087Z,11.40
2019-03-23T19:38:45.151Z,11.50
2019-03-23T19:42:08.068Z,11.40
2019-03-23T19:45:30.967Z,11.40
2019-03-23T19:48:54.211Z,11.40
2019-03-23T19:52:17.209Z,11.30
2019-03-23T19:55:40.465Z,11.30
2019-03-23T19:59:03.189Z,11.20
2019-03-23T20:02:26.103Z,11.20
2019-03-23T20:05:48.986Z,11.20
2019-03-23T20:09:11.890Z,11.20
2019-03-23T20:12:34.751Z,11.20
2019-03-23T20:15:57.867Z,11.20
2019-03-23T20:19:21.007Z,11.20
2019-03-23T20:22:43.854Z,11.20
2019-03-23T20:26:07.061Z,11.20
2019-03-23T20:29:29.924Z,11.20
2019-03-23T20:32:52.493Z,11.20
2019-03-23T20:36:15.093Z,11.10
2019-03-23T20:39:37.982Z,11.10
2019-03-23T20:43:00.941Z,11.10
2019-03-23T20:46:24.530Z,11.00
2019-03-23T20:49:47.785Z,11.00
2019-03-23T20:53:10.998Z,11.00
2019-03-23T20:56:33.871Z,10.90
2019-03-23T20:59:56.758Z,10.80
2019-03-23T21:03:19.355Z,10.70
2019-03-23T21:06:42.465Z,10.60
2019-03-23T21:10:05.778Z,10.60
2019-03-23T21:13:28.957Z,10.50
2019-03-23T21:16:51.889Z,10.40
2019-03-23T21:20:15.171Z,10.40
2019-03-23T21:23:38.247Z,10.40
2019-03-23T21:27:01.318Z,10.30
2019-03-23T21:30:24.137Z,10.20
2019-03-23T21:33:47.099Z,10.20
2019-03-23T21:37:09.914Z,10.10
2019-03-23T21:40:34.975Z,10.10
2019-03-23T21:43:57.198Z,10.10
2019-03-23T21:47:20.294Z,10.10
2019-03-23T21:50:47.388Z,10.10
2019-03-23T21:54:07.723Z,10.10
2019-03-23T21:57:30.307Z,10.10
2019-03-23T22:00:53.247Z,10.00
2019-03-23T22:04:15.818Z,10.00
2019-03-23T22:07:39.042Z,10.00
2019-03-23T22:11:01.975Z,9.90
2019-03-23T22:14:24.939Z,9.90
2019-03-23T22:17:47.771Z,9.90
2019-03-23T22:21:10.659Z,9.90
2019-03-23T22:24:33.502Z,9.90
2019-03-23T22:27:56.118Z,9.90
2019-03-23T22:31:19.403Z,9.70
2019-03-23T22:34:42.308Z,9.70
2019-03-23T22:38:05.490Z,9.60
2019-03-23T22:41:28.452Z,9.50
2019-03-23T22:44:52.769Z,9.40
2019-03-23T22:48:16.182Z,9.40
2019-03-23T22:51:38.853Z,9.40
2019-03-23T22:55:01.457Z,9.40
2019-03-23T22:58:24.598Z,9.40
2019-03-23T23:01:47.467Z,9.40
2019-03-23T23:05:11.634Z,9.40
2019-03-23T23:08:34.751Z,9.40
2019-03-23T23:11:58.001Z,9.30
2019-03-23T23:15:21.099Z,9.30
2019-03-23T23:18:43.923Z,9.20
2019-03-23T23:22:06.843Z,9.10
2019-03-23T23:25:30.001Z,9.10
2019-03-23T23:28:52.630Z,9.00
2019-03-23T23:32:15.500Z,8.90
2019-03-23T23:35:38.414Z,8.90
2019-03-23T23:39:01.346Z,8.80
2019-03-23T23:42:24.223Z,8.80
2019-03-23T23:45:47.149Z,8.70
2019-03-23T23:49:09.931Z,8.70
2019-03-23T23:52:32.887Z,8.60
2019-03-23T23:55:55.996Z,8.50
2019-03-23T23:59:19.123Z,8.40
